Time;durP1;ratioP1;P1;durP2;ratioP2;P2;SDS_P1;SDS_P2;PMS_P1;PMS_P2;Temp;Humidity;BMP_temperature;BMP_pressure;BME280_temperature;BME280_humidity;BME280_pressure;Samples;Min_cycle;Max_cycle;Signal;HPM_P1;HPM_P2
2023/02/03 00:00:05;;;;;;;15.88;13.30;;;;;;;10.84;70.27;101095.50;5054177;28;20068;-61
2023/02/03 00:02:32;;;;;;;18.20;13.73;;;;;;;10.85;70.06;101079.63;5052068;28;20048;-61
2023/02/03 00:04:59;;;;;;;18.33;14.85;;;;;;;10.82;70.32;101081.06;5034588;28;20053;-60
2023/02/03 00:07:27;;;;;;;16.25;13.63;;;;;;;10.77;70.35;101073.59;5034354;28;20410;-61
2023/02/03 00:09:57;;;;;;;18.35;13.40;;;;;;;10.75;70.02;101059.16;5034162;28;20050;-61
2023/02/03 00:12:24;;;;;;;17.30;13.63;;;;;;;10.74;70.12;101060.25;5033760;28;20485;-60
2023/02/03 00:14:51;;;;;;;24.15;13.48;;;;;;;10.76;69.96;101066.34;5034291;28;20060;-60
2023/02/03 00:17:19;;;;;;;14.63;12.20;;;;;;;10.73;70.19;101058.63;5052735;28;20048;-61
2023/02/03 00:19:46;;;;;;;17.00;12.98;;;;;;;10.64;70.20;101065.16;5036218;28;20049;-60
2023/02/03 00:22:13;;;;;;;14.20;12.38;;;;;;;10.67;70.28;101059.00;5046030;28;20053;-60
2023/02/03 00:24:40;;;;;;;14.18;11.65;;;;;;;10.69;70.18;101054.78;5048917;28;20049;-60
2023/02/03 00:27:09;;;;;;;15.60;12.25;;;;;;;10.62;69.91;101057.09;5038481;28;20371;-60
2023/02/03 00:29:36;;;;;;;16.55;11.90;;;;;;;10.68;70.39;101066.22;5034454;28;20053;-60
2023/02/03 00:32:04;;;;;;;15.38;12.05;;;;;;;10.66;70.35;101051.75;5034446;28;20053;-60
2023/02/03 00:34:32;;;;;;;15.20;11.30;;;;;;;10.66;70.70;101047.00;5044872;28;20053;-60
2023/02/03 00:36:59;;;;;;;15.80;11.65;;;;;;;10.65;70.49;101044.53;5048496;28;20052;-61
2023/02/03 00:39:26;;;;;;;14.52;11.57;;;;;;;10.65;70.17;101041.75;5041944;28;20490;-60
2023/02/03 00:41:53;;;;;;;15.02;11.73;;;;;;;10.70;69.99;101036.91;5052617;28;20064;-61
2023/02/03 00:44:22;;;;;;;12.57;10.60;;;;;;;10.67;69.84;101039.50;5053162;28;20048;-61
2023/02/03 00:46:49;;;;;;;15.57;11.82;;;;;;;10.67;69.71;101037.53;5052982;28;20049;-60
2023/02/03 00:49:16;;;;;;;14.27;11.00;;;;;;;10.66;69.80;101035.03;5051538;28;20064;-61
2023/02/03 00:51:44;;;;;;;12.55;10.63;;;;;;;10.66;69.60;101048.97;5053050;28;20498;-60
2023/02/03 00:54:12;;;;;;;12.93;10.57;;;;;;;10.63;69.70;101049.59;5052181;28;20049;-60
2023/02/03 00:56:39;;;;;;;17.33;11.88;;;;;;;10.66;69.92;101058.16;5049845;28;20049;-61
2023/02/03 00:59:07;;;;;;;14.57;10.65;;;;;;;10.75;69.83;101056.34;5037656;28;20494;-61
2023/02/03 01:01:36;;;;;;;13.25;11.15;;;;;;;10.73;69.66;101061.41;5033849;28;20053;-61
2023/02/03 01:04:04;;;;;;;13.73;10.40;;;;;;;10.73;69.73;101058.63;5043534;28;20065;-60
2023/02/03 01:06:31;;;;;;;12.75;11.10;;;;;;;10.66;69.45;101069.28;5051620;28;20402;-61
2023/02/03 01:08:58;;;;;;;17.45;10.82;;;;;;;10.67;69.83;101068.19;5052154;28;20045;-60
2023/02/03 01:11:27;;;;;;;15.20;10.90;;;;;;;10.74;69.48;101076.16;5043365;28;20065;-61
2023/02/03 01:13:58;;;;;;;12.48;9.75;;;;;;;10.82;69.46;101078.25;5044934;28;20508;-60
2023/02/03 01:16:25;;;;;;;12.90;10.73;;;;;;;10.76;69.06;101076.69;5051664;28;20393;-60
2023/02/03 01:18:55;;;;;;;12.48;10.68;;;;;;;10.76;69.26;101076.69;5046865;28;20049;-60
2023/02/03 01:21:25;;;;;;;13.68;10.43;;;;;;;10.77;69.31;101081.97;5036916;28;20049;-61
2023/02/03 01:23:53;;;;;;;11.57;9.80;;;;;;;10.77;69.38;101114.56;5036929;28;20053;-60
2023/02/03 01:26:21;;;;;;;16.23;10.55;;;;;;;10.77;69.27;101100.63;5032586;28;20045;-60
2023/02/03 01:28:51;;;;;;;18.47;11.60;;;;;;;10.78;69.51;101091.16;5032947;28;20049;-61
2023/02/03 01:31:20;;;;;;;12.25;9.82;;;;;;;10.84;69.28;101091.91;5032783;28;20495;-61
2023/02/03 01:33:48;;;;;;;12.15;10.35;;;;;;;10.84;69.18;101091.91;5042203;28;20044;-60
2023/02/03 01:36:18;;;;;;;13.80;10.32;;;;;;;10.80;69.79;101072.16;5052437;28;20057;-60
2023/02/03 01:38:46;;;;;;;;;;;;;;;10.79;69.77;101078.03;5052638;28;20056;-60
2023/02/03 01:41:15;;;;;;;13.07;10.15;;;;;;;10.78;69.79;101077.22;5042271;28;19947;-61
2023/02/03 01:43:46;;;;;;;14.73;10.65;;;;;;;10.85;69.77;101085.19;5047877;28;20124;-61
2023/02/03 01:46:27;;;;;;;15.18;10.57;;;;;;;10.86;69.77;101089.66;5037560;28;20105;-60
2023/02/03 01:48:59;;;;;;;13.20;10.13;;;;;;;10.82;69.74;101083.03;5034972;28;20410;-60
2023/02/03 01:51:28;;;;;;;17.35;10.40;;;;;;;10.86;69.56;101087.69;5032084;28;20402;-61
2023/02/03 01:53:56;;;;;;;13.80;10.30;;;;;;;10.87;70.10;101097.69;5042043;28;20060;-60
2023/02/03 01:56:24;;;;;;;12.93;10.50;;;;;;;10.88;69.81;101074.28;5052466;28;20063;-60
2023/02/03 01:58:52;;;;;;;15.77;10.73;;;;;;;10.90;69.34;101077.59;5051887;28;20045;-60
2023/02/03 02:01:19;;;;;;;12.10;10.18;;;;;;;10.92;69.22;101088.44;5052209;28;20059;-61
2023/02/03 02:03:52;;;;;;;15.05;10.98;;;;;;;10.87;69.05;101074.56;5043211;28;20056;-60
2023/02/03 02:06:20;;;;;;;14.60;11.60;;;;;;;10.90;69.22;101068.41;5052150;28;20052;-60
2023/02/03 02:08:51;;;;;;;15.68;10.25;;;;;;;10.92;68.79;101078.13;5049621;28;20052;-60
2023/02/03 02:11:20;;;;;;;13.07;11.65;;;;;;;10.89;68.92;101075.91;5051828;28;20056;-60
2023/02/03 02:13:48;;;;;;;16.75;11.35;;;;;;;10.78;68.96;101077.22;5051938;28;20056;-60
2023/02/03 02:16:21;;;;;;;14.10;10.68;;;;;;;10.84;68.71;101083.53;5034770;28;20481;-61
2023/02/03 02:19:13;;;;;;;14.43;10.70;;;;;;;10.81;68.69;101064.63;5048883;28;20064;-60
2023/02/03 02:22:05;;;;;;;16.35;10.07;;;;;;;10.80;68.63;101061.03;5056134;28;20049;-60
2023/02/03 02:25:02;;;;;;;12.30;9.48;;;;;;;10.89;68.85;101067.56;5056045;28;20049;-60
2023/02/03 02:28:07;;;;;;;13.25;9.63;;;;;;;10.90;68.92;101060.88;5056021;28;20060;-61
2023/02/03 02:30:55;;;;;;;10.45;9.00;;;;;;;10.93;68.66;101037.94;5054713;28;20053;-60
2023/02/03 02:33:38;;;;;;;13.98;10.75;;;;;;;10.80;68.33;101030.38;5055239;28;20391;-60
2023/02/03 02:36:16;;;;;;;11.05;8.98;;;;;;;10.81;68.50;101018.06;5055822;28;20060;-60
2023/02/03 02:38:53;;;;;;;12.32;8.75;;;;;;;10.81;69.26;101012.50;5055493;28;20060;-60
2023/02/03 02:41:28;;;;;;;12.30;8.73;;;;;;;10.92;68.22;101015.97;5055754;28;20049;-60
2023/02/03 02:44:01;;;;;;;14.52;9.68;;;;;;;10.89;68.17;101006.25;5046515;28;20056;-60
2023/02/03 02:46:39;;;;;;;12.55;9.05;;;;;;;10.89;68.08;101006.25;5042175;28;20421;-61
2023/02/03 02:49:14;;;;;;;12.88;9.02;;;;;;;10.91;67.88;101005.94;5050867;28;20513;-60
2023/02/03 02:51:44;;;;;;;11.80;8.43;;;;;;;10.91;67.83;101025.47;5044711;28;20072;-60
2023/02/03 02:54:16;;;;;;;12.52;9.60;;;;;;;10.90;68.07;101023.81;5043370;28;20060;-60
2023/02/03 02:56:45;;;;;;;11.60;8.70;;;;;;;10.90;67.79;101010.69;5047798;28;20053;-61
2023/02/03 02:59:14;;;;;;;14.10;8.50;;;;;;;10.91;67.45;100994.78;5035423;28;20054;-60
2023/02/03 03:01:41;;;;;;;11.77;9.13;;;;;;;10.85;67.89;100987.66;5039624;28;20059;-61
2023/02/03 03:04:13;;;;;;;12.98;9.27;;;;;;;10.90;67.53;100993.97;5054538;28;20056;-61
2023/02/03 03:06:44;;;;;;;12.57;9.05;;;;;;;10.89;67.75;101005.41;5044054;28;20406;-61
2023/02/03 03:09:16;;;;;;;13.27;9.00;;;;;;;10.86;67.63;101006.03;5035031;28;20053;-60
2023/02/03 03:11:49;;;;;;;11.27;9.70;;;;;;;10.89;67.57;101028.53;5034944;28;20053;-61
2023/02/03 03:14:19;;;;;;;12.93;9.35;;;;;;;10.87;67.58;101072.59;5035186;28;20486;-60
2023/02/03 03:16:52;;;;;;;13.10;9.43;;;;;;;10.92;67.57;101078.13;5049243;28;20413;-61
2023/02/03 03:19:24;;;;;;;13.68;9.05;;;;;;;10.92;67.54;101072.53;5055205;28;20049;-61
2023/02/03 03:21:56;;;;;;;15.13;9.90;;;;;;;10.87;67.87;101043.91;5054324;28;20053;-61
2023/02/03 03:24:29;;;;;;;14.25;9.80;;;;;;;10.88;67.99;101054.75;5054556;28;20049;-60
2023/02/03 03:27:02;;;;;;;14.27;9.82;;;;;;;10.90;67.58;101046.94;5037723;28;20061;-61
2023/02/03 03:29:34;;;;;;;13.32;9.65;;;;;;;10.87;67.38;101041.94;5037766;28;20049;-61
2023/02/03 03:32:02;;;;;;;13.70;9.73;;;;;;;10.82;67.28;101033.69;5048488;28;20049;-61
2023/02/03 03:34:32;;;;;;;10.93;9.38;;;;;;;10.78;67.37;101027.06;5040589;28;20037;-61
2023/02/03 03:37:07;;;;;;;12.00;9.18;;;;;;;10.76;67.64;101026.53;5054888;28;20053;-61
2023/02/03 03:39:42;;;;;;;12.07;8.75;;;;;;;10.76;67.53;101030.13;5052273;28;20052;-61
2023/02/03 03:42:14;;;;;;;14.48;8.45;;;;;;;10.66;67.43;101030.28;5035947;28;20057;-62
2023/02/03 03:44:50;;;;;;;10.68;7.32;;;;;;;10.69;67.26;101035.28;5047497;28;20485;-62
2023/02/03 03:47:34;;;;;;;8.85;7.55;;;;;;;10.75;67.52;101027.63;5042319;28;20057;-62
2023/02/03 03:50:10;;;;;;;13.30;8.32;;;;;;;10.77;67.32;101025.38;5044341;28;20060;-61
2023/02/03 03:52:38;;;;;;;12.32;7.82;;;;;;;10.63;67.61;101030.09;5054544;28;20049;-62
2023/02/03 03:55:10;;;;;;;11.02;7.70;;;;;;;10.59;67.67;101023.44;5053277;28;20048;-62
2023/02/03 03:57:42;;;;;;;10.27;6.75;;;;;;;10.68;67.57;101027.19;5045873;28;20053;-62
2023/02/03 04:00:12;;;;;;;8.05;6.43;;;;;;;10.68;67.66;101021.63;5035801;28;20049;-61
2023/02/03 04:02:42;;;;;;;8.25;6.15;;;;;;;10.69;67.23;101024.13;5035749;28;20049;-62
2023/02/03 04:05:13;;;;;;;7.15;6.20;;;;;;;10.68;67.27;101028.03;5050738;28;20044;-61
2023/02/03 04:07:43;;;;;;;10.63;6.18;;;;;;;10.76;67.11;101034.88;5051868;28;20057;-60
2023/02/03 04:10:20;;;;;;;9.68;6.03;;;;;;;10.79;67.13;101028.69;5053231;28;20053;-61
2023/02/03 04:12:48;;;;;;;10.50;6.30;;;;;;;10.77;67.30;101031.81;5053323;28;20053;-61
2023/02/03 04:15:15;;;;;;;7.53;5.93;;;;;;;10.70;66.79;101024.94;5051786;28;20049;-61
2023/02/03 04:17:42;;;;;;;9.35;5.78;;;;;;;10.73;66.57;101018.75;5052249;28;20068;-61
2023/02/03 04:20:12;;;;;;;9.45;5.60;;;;;;;10.77;66.71;101019.81;5051838;28;20053;-61
2023/02/03 04:22:40;;;;;;;9.68;5.78;;;;;;;10.78;66.65;101024.28;5045525;28;20473;-61
2023/02/03 04:25:08;;;;;;;7.65;5.55;;;;;;;10.77;66.68;101014.22;5037079;28;20046;-61
2023/02/03 04:27:36;;;;;;;8.98;5.75;;;;;;;10.82;66.32;101005.81;5043899;28;20056;-61
2023/02/03 04:30:03;;;;;;;7.72;5.60;;;;;;;10.82;66.44;101014.16;5043424;28;20056;-62
2023/02/03 04:32:31;;;;;;;9.20;5.75;;;;;;;10.85;66.25;101024.69;5044731;28;20057;-62
2023/02/03 04:34:58;;;;;;;7.00;5.47;;;;;;;10.87;66.13;101013.25;5052984;28;20049;-61
2023/02/03 04:37:27;;;;;;;8.13;5.68;;;;;;;10.89;66.16;101019.34;5046396;28;20053;-61
2023/02/03 04:39:55;;;;;;;8.60;5.60;;;;;;;10.89;65.82;101022.97;5051434;28;20049;-61
2023/02/03 04:42:22;;;;;;;8.13;5.45;;;;;;;10.94;65.94;101017.31;5052336;28;20049;-61
2023/02/03 04:44:50;;;;;;;6.82;5.93;;;;;;;10.96;65.89;101012.28;5044318;28;20045;-61
2023/02/03 04:47:18;;;;;;;6.22;5.50;;;;;;;10.91;65.88;101026.28;5045092;28;20402;-61
2023/02/03 04:49:45;;;;;;;8.30;6.22;;;;;;;10.91;66.22;101015.13;5047111;28;20053;-61
2023/02/03 04:52:13;;;;;;;8.20;6.22;;;;;;;11.00;65.85;101028.38;5050754;28;20075;-61
2023/02/03 04:54:42;;;;;;;11.57;6.72;;;;;;;11.01;65.72;101007.75;5050879;28;20056;-61
2023/02/03 04:57:09;;;;;;;8.65;6.70;;;;;;;10.87;66.49;100990.97;5053087;28;20064;-61
2023/02/03 04:59:36;;;;;;;7.57;6.18;;;;;;;10.88;66.47;100992.63;5050825;28;20056;-61
2023/02/03 05:02:04;;;;;;;7.80;6.50;;;;;;;10.91;65.75;100980.88;5033360;28;20474;-61
2023/02/03 05:04:32;;;;;;;9.40;6.55;;;;;;;10.92;65.46;100965.81;5038672;28;20052;-61
2023/02/03 05:06:59;;;;;;;12.02;6.55;;;;;;;10.86;66.15;100979.00;5032597;28;20064;-61
2023/02/03 05:09:27;;;;;;;7.05;5.75;;;;;;;10.88;66.21;100973.94;5033359;28;20056;-61
2023/02/03 05:11:55;;;;;;;8.55;6.70;;;;;;;10.88;66.01;100982.31;5032623;28;20053;-61
2023/02/03 05:14:23;;;;;;;9.50;6.82;;;;;;;10.80;65.85;100983.00;5033702;28;20062;-61
2023/02/03 05:16:50;;;;;;;9.13;6.00;;;;;;;10.85;65.86;100993.22;5032311;28;20076;-61
2023/02/03 05:19:17;;;;;;;7.90;5.53;;;;;;;10.85;65.84;100987.66;5035365;28;20406;-61
2023/02/03 05:21:44;;;;;;;9.52;5.50;;;;;;;10.87;66.01;100977.84;5050899;28;20051;-61
2023/02/03 05:24:12;;;;;;;8.60;6.40;;;;;;;10.91;66.11;100973.31;5043412;28;20064;-60
2023/02/03 05:26:39;;;;;;;9.20;6.78;;;;;;;10.90;66.04;100985.63;5052363;28;20048;-60
2023/02/03 05:29:08;;;;;;;9.65;6.32;;;;;;;10.78;65.93;100976.91;5038415;28;20410;-60
2023/02/03 05:31:36;;;;;;;10.35;6.15;;;;;;;10.82;66.04;100986.31;5037800;28;20049;-60
2023/02/03 05:34:03;;;;;;;8.18;5.97;;;;;;;10.82;66.00;100977.94;5052857;28;20497;-60
2023/02/03 05:36:31;;;;;;;11.05;6.63;;;;;;;10.82;66.23;100983.53;5047577;28;20057;-60
2023/02/03 05:38:58;;;;;;;9.55;6.25;;;;;;;10.86;66.25;100978.19;5033165;28;20061;-60
2023/02/03 05:44:24;;;;;;;8.23;6.10;;;;;;;10.86;66.15;100972.59;4986960;28;20054;-59
2023/02/03 05:46:54;;;;;;;8.75;6.38;;;;;;;10.92;65.95;100971.38;5036491;28;20433;-60
2023/02/03 05:49:22;;;;;;;9.80;5.90;;;;;;;10.91;66.06;100975.28;5039106;28;20053;-59
2023/02/03 05:51:49;;;;;;;10.57;6.13;;;;;;;10.91;65.53;100969.72;5041585;28;20061;-60
2023/02/03 05:54:17;;;;;;;8.38;4.97;;;;;;;10.95;65.59;100967.97;5044733;28;20081;-60
2023/02/03 05:56:44;;;;;;;7.35;5.78;;;;;;;10.93;65.77;100976.63;5042755;28;20041;-60
2023/02/03 05:59:11;;;;;;;8.95;5.65;;;;;;;10.94;65.22;100974.66;5045756;28;20413;-59
2023/02/03 06:01:40;;;;;;;9.13;6.10;;;;;;;10.90;65.70;100974.47;5035366;28;20056;-60
2023/02/03 06:04:07;;;;;;;8.55;5.50;;;;;;;10.88;65.72;100968.38;5048193;28;20053;-59
2023/02/03 06:06:35;;;;;;;6.65;5.30;;;;;;;10.90;65.68;100977.25;5051002;28;20045;-60
2023/02/03 06:09:05;;;;;;;10.13;5.57;;;;;;;10.92;65.47;100983.34;5037547;28;20501;-60
2023/02/03 06:11:34;;;;;;;8.30;5.00;;;;;;;10.92;65.42;100969.41;5033818;28;20052;-59
2023/02/03 06:14:02;;;;;;;8.65;5.63;;;;;;;10.92;65.53;100983.34;5035045;28;20048;-59
2023/02/03 06:16:29;;;;;;;8.40;5.97;;;;;;;10.94;65.66;100981.09;5047303;28;20049;-60
2023/02/03 06:18:59;;;;;;;9.73;5.80;;;;;;;10.94;65.65;100996.97;5048233;28;20068;-60
2023/02/03 06:21:27;;;;;;;7.75;5.43;;;;;;;10.92;65.11;100975.00;5041038;28;20049;-59
2023/02/03 06:23:55;;;;;;;8.68;4.80;;;;;;;10.88;65.58;100973.94;5046735;28;20053;-60
2023/02/03 06:26:22;;;;;;;7.30;5.10;;;;;;;10.82;65.92;100960.41;5044704;28;20052;-60
2023/02/03 06:28:50;;;;;;;8.45;4.60;;;;;;;10.85;65.97;100966.19;5038669;28;20045;-60
2023/02/03 06:31:17;;;;;;;6.22;4.72;;;;;;;10.89;65.72;100978.38;5045617;28;20062;-60
2023/02/03 06:33:44;;;;;;;8.40;4.82;;;;;;;10.93;65.34;100973.03;5047840;28;20061;-60
2023/02/03 06:36:13;;;;;;;7.57;5.05;;;;;;;10.86;65.71;100972.59;5044718;28;20055;-59
2023/02/03 06:38:40;;;;;;;7.25;4.40;;;;;;;10.76;66.08;100979.97;5041682;28;20045;-59
2023/02/03 06:41:07;;;;;;;7.82;4.45;;;;;;;10.78;65.95;100971.31;5037213;28;20045;-59
2023/02/03 06:43:35;;;;;;;5.47;4.32;;;;;;;10.87;66.15;100977.84;5047922;28;20140;-59
2023/02/03 06:46:02;;;;;;;8.35;4.75;;;;;;;10.92;65.95;100968.59;5038275;28;20053;-59
2023/02/03 06:48:29;;;;;;;7.55;4.43;;;;;;;10.99;65.74;100996.91;5043756;28;20064;-61
2023/02/03 06:50:56;;;;;;;7.75;4.28;;;;;;;10.87;66.09;100989.00;5048420;28;20050;-60
2023/02/03 06:53:25;;;;;;;6.50;4.47;;;;;;;10.88;65.66;100993.44;5041419;28;20057;-59
2023/02/03 06:55:52;;;;;;;5.47;3.47;;;;;;;10.87;65.91;100966.69;5036644;28;20056;-60
2023/02/03 06:58:20;;;;;;;6.95;3.90;;;;;;;10.84;65.75;100984.03;5035532;28;20056;-59
2023/02/03 07:00:47;;;;;;;6.43;3.60;;;;;;;10.90;65.92;100974.47;5040809;28;20077;-59
2023/02/03 07:03:14;;;;;;;4.50;3.35;;;;;;;10.91;65.79;100976.09;5048661;28;20078;-59
2023/02/03 07:05:41;;;;;;;7.50;3.55;;;;;;;11.00;65.81;100989.34;5055574;28;20049;-59
2023/02/03 07:08:08;;;;;;;6.40;3.67;;;;;;;10.99;65.60;100994.09;5052035;28;20489;-59
2023/02/03 07:10:37;;;;;;;5.68;3.65;;;;;;;10.96;65.84;101003.91;5046347;28;20044;-59
2023/02/03 07:13:05;;;;;;;7.93;4.43;;;;;;;10.91;66.19;101006.75;5055136;28;20474;-59
2023/02/03 07:15:32;;;;;;;6.50;4.63;;;;;;;10.93;66.79;100998.09;5054818;28;20386;-59
2023/02/03 07:18:00;;;;;;;7.53;4.45;;;;;;;10.95;67.16;100999.44;5053888;28;20056;-59
2023/02/03 07:20:28;;;;;;;5.63;3.63;;;;;;;11.01;67.29;101002.19;5034693;28;20053;-59
2023/02/03 07:22:56;;;;;;;7.78;4.20;;;;;;;10.90;67.81;100999.56;5049893;28;20064;-59
2023/02/03 07:25:24;;;;;;;7.53;4.70;;;;;;;10.77;67.70;101003.09;5044672;28;20060;-60
2023/02/03 07:27:54;;;;;;;7.60;4.40;;;;;;;10.83;68.83;101003.84;5038600;28;20071;-59
2023/02/03 07:30:21;;;;;;;9.23;6.03;;;;;;;10.64;69.62;100979.59;5035989;28;20049;-58
2023/02/03 07:32:50;;;;;;;11.23;7.20;;;;;;;10.66;69.80;100996.03;5039555;28;20057;-58
2023/02/03 07:35:18;;;;;;;8.05;5.53;;;;;;;10.67;70.15;100989.34;5051696;28;20060;-59
2023/02/03 07:37:45;;;;;;;8.43;5.18;;;;;;;10.73;69.66;101000.09;5037933;28;20794;-59
2023/02/03 07:40:14;;;;;;;7.35;4.70;;;;;;;10.66;70.14;100977.34;5042932;28;20048;-59
2023/02/03 07:42:42;;;;;;;10.65;5.50;;;;;;;10.69;69.88;100995.44;5039859;28;20060;-59
2023/02/03 07:45:12;;;;;;;6.95;4.90;;;;;;;10.69;69.74;100996.25;5043163;28;20053;-57
2023/02/03 07:47:40;;;;;;;7.32;4.93;;;;;;;10.76;69.29;100985.56;5034377;28;20050;-57
2023/02/03 07:50:08;;;;;;;6.72;5.50;;;;;;;10.75;69.22;100994.19;5053915;28;20060;-57
2023/02/03 07:52:36;;;;;;;9.40;5.55;;;;;;;10.79;69.06;100991.66;5054630;28;20072;-58
2023/02/03 07:55:04;;;;;;;7.55;4.90;;;;;;;10.79;68.70;101002.78;5051181;28;20064;-58
2023/02/03 07:57:31;;;;;;;6.97;5.28;;;;;;;10.72;68.67;100997.63;5041156;28;20046;-58
2023/02/03 07:59:59;;;;;;;6.07;4.90;;;;;;;10.82;68.88;101000.25;5047999;28;20049;-58
2023/02/03 08:02:27;;;;;;;8.43;5.13;;;;;;;10.87;68.67;101016.88;5043046;28;20057;-58
2023/02/03 08:04:56;;;;;;;7.13;5.10;;;;;;;10.93;68.16;101007.28;5046356;28;20053;-58
2023/02/03 08:07:24;;;;;;;8.52;5.35;;;;;;;10.94;67.79;101013.69;5044318;28;20603;-58
2023/02/03 08:09:51;;;;;;;8.23;5.60;;;;;;;10.95;67.99;100999.44;5045207;28;20057;-58
2023/02/03 08:12:18;;;;;;;7.95;5.30;;;;;;;11.00;67.35;101001.31;5037906;28;20053;-58
2023/02/03 08:14:45;;;;;;;6.70;5.30;;;;;;;11.00;67.75;100995.75;5041947;28;20060;-58
2023/02/03 08:17:13;;;;;;;8.68;6.00;;;;;;;11.01;67.97;101008.56;5042203;28;20045;-60
2023/02/03 08:19:42;;;;;;;11.13;6.13;;;;;;;10.94;67.64;101020.13;5047235;28;20049;-59
2023/02/03 08:22:14;;;;;;;7.80;5.75;;;;;;;10.92;67.54;101004.84;5040408;28;20061;-58
2023/02/03 08:24:44;;;;;;;8.55;6.25;;;;;;;10.89;67.85;101000.66;5045435;28;20052;-58
2023/02/03 08:27:11;;;;;;;;;;;;;;;10.86;68.16;101004.06;5044611;28;20052;-58
2023/02/03 08:29:38;;;;;;;7.15;5.28;;;;;;;10.87;68.28;101008.50;5047569;28;19928;-59
2023/02/03 08:32:08;;;;;;;9.95;6.38;;;;;;;10.95;68.20;101010.59;5042293;28;20056;-59
2023/02/03 08:34:36;;;;;;;9.90;6.35;;;;;;;10.94;67.68;101014.53;5048614;28;20072;-60
2023/02/03 08:37:05;;;;;;;9.55;6.88;;;;;;;10.84;68.04;101009.13;5047708;28;20382;-58
2023/02/03 08:39:33;;;;;;;7.22;5.78;;;;;;;10.95;67.97;101002.25;5040023;28;20498;-59
2023/02/03 08:42:02;;;;;;;10.63;6.78;;;;;;;10.79;68.25;101009.19;5039897;28;20055;-59
2023/02/03 08:44:30;;;;;;;;;;;;;;;10.85;68.09;101016.34;5047621;28;20386;-58
2023/02/03 08:46:57;;;;;;;9.45;6.80;;;;;;;10.90;67.85;101001.53;5042867;28;19951;-59
2023/02/03 08:49:27;;;;;;;7.53;6.78;;;;;;;10.86;68.42;100992.09;5040349;28;20072;-58
2023/02/03 08:51:54;;;;;;;8.77;7.32;;;;;;;10.81;68.57;100986.59;5046677;28;20604;-58
2023/02/03 08:54:24;;;;;;;10.60;6.85;;;;;;;10.83;68.58;100984.34;5043959;28;20057;-58
2023/02/03 08:56:51;;;;;;;9.68;7.25;;;;;;;10.86;68.64;101012.44;5045086;28;20056;-59
2023/02/03 08:59:19;;;;;;;8.75;6.40;;;;;;;10.92;68.79;101021.56;5045389;28;20049;-58
2023/02/03 09:01:47;;;;;;;10.38;7.25;;;;;;;10.86;69.71;101014.41;5041970;28;20065;-58
2023/02/03 09:04:18;;;;;;;8.90;7.32;;;;;;;10.86;69.54;101015.22;5042288;28;20053;-58
2023/02/03 09:06:46;;;;;;;8.20;7.03;;;;;;;10.78;70.18;101018.69;5045152;28;20052;-58
2023/02/03 09:09:14;;;;;;;12.43;7.47;;;;;;;10.77;69.77;101022.59;5041715;28;20060;-60
2023/02/03 09:11:43;;;;;;;9.60;8.07;;;;;;;10.81;69.82;101018.06;5046142;28;20052;-58
2023/02/03 09:14:10;;;;;;;9.93;7.45;;;;;;;10.75;69.58;101028.50;5046914;28;20410;-58
2023/02/03 09:16:38;;;;;;;9.35;7.32;;;;;;;10.85;69.83;101018.31;5042341;28;20064;-60
2023/02/03 09:19:05;;;;;;;9.95;7.45;;;;;;;10.80;69.70;101022.00;5044617;28;20505;-59
2023/02/03 09:21:32;;;;;;;9.82;7.28;;;;;;;10.84;69.76;101013.88;5046965;28;20049;-59
2023/02/03 09:24:01;;;;;;;10.93;8.18;;;;;;;10.86;69.62;101031.13;5045731;28;20048;-59
2023/02/03 09:26:29;;;;;;;12.25;9.57;;;;;;;10.86;69.57;101031.94;5043631;28;20056;-58
2023/02/03 09:28:57;;;;;;;11.77;8.15;;;;;;;10.93;69.60;101024.00;5042070;28;20056;-59
2023/02/03 09:31:25;;;;;;;10.65;7.78;;;;;;;10.76;69.98;101030.13;5043220;28;20481;-58
2023/02/03 09:33:52;;;;;;;9.88;7.97;;;;;;;10.81;70.04;101026.44;5047458;28;21425;-59
2023/02/03 09:36:19;;;;;;;8.13;7.32;;;;;;;10.90;70.21;101030.22;5047016;28;20064;-60
2023/02/03 09:38:46;;;;;;;8.95;7.85;;;;;;;10.94;69.53;101027.63;5044900;28;20045;-58
2023/02/03 09:41:25;;;;;;;9.20;7.93;;;;;;;10.91;69.27;101034.63;5039637;28;20056;-59
2023/02/03 09:43:58;;;;;;;11.77;8.65;;;;;;;10.85;69.77;101027.50;5044524;28;20057;-58
2023/02/03 09:46:32;;;;;;;9.63;8.52;;;;;;;10.88;70.40;101029.69;5045268;28;20374;-58
2023/02/03 09:49:06;;;;;;;10.60;9.05;;;;;;;10.84;70.31;101017.50;5043279;28;20049;-58
2023/02/03 09:51:41;;;;;;;8.60;7.68;;;;;;;10.96;69.83;101014.22;5041566;28;20052;-59
2023/02/03 09:54:16;;;;;;;9.63;8.63;;;;;;;10.85;69.90;101005.19;5046748;28;20049;-58
2023/02/03 09:56:48;;;;;;;10.25;8.68;;;;;;;10.88;70.28;101024.09;5043870;28;20049;-58
2023/02/03 09:59:16;;;;;;;12.13;8.55;;;;;;;10.96;69.48;101011.41;5043399;28;20484;-58
2023/02/03 10:01:52;;;;;;;10.35;9.25;;;;;;;10.94;69.58;101002.53;5046088;28;20079;-58
2023/02/03 10:04:28;;;;;;;12.40;9.90;;;;;;;10.84;69.78;101022.25;5046253;28;20052;-58
2023/02/03 10:07:06;;;;;;;10.77;8.98;;;;;;;10.91;70.05;101014.31;5044210;28;20057;-64
2023/02/03 10:09:50;;;;;;;12.20;9.63;;;;;;;10.88;69.41;101018.53;5037838;28;20050;-63
2023/02/03 10:13:02;;;;;;;13.27;10.18;;;;;;;10.94;69.57;101027.63;5043680;28;20071;-64
2023/02/03 10:15:56;;;;;;;10.85;9.70;;;;;;;10.95;69.45;101035.69;4960472;28;20055;-65
2023/02/03 10:18:31;;;;;;;13.15;9.82;;;;;;;11.05;69.22;101043.06;5045446;28;20722;-64
2023/02/03 10:21:04;;;;;;;14.50;10.20;;;;;;;11.08;68.78;101034.09;5045229;28;20508;-64
2023/02/03 10:23:36;;;;;;;10.63;9.43;;;;;;;11.09;69.04;101026.56;5041685;28;20053;-62
2023/02/03 10:26:10;;;;;;;12.82;9.68;;;;;;;11.08;68.96;101019.31;5036676;28;20045;-64
2023/02/03 10:28:46;;;;;;;13.70;10.70;;;;;;;11.12;68.82;101028.75;5045688;28;20477;-64
2023/02/03 10:31:21;;;;;;;14.52;9.93;;;;;;;11.12;68.84;101037.91;5045385;28;20405;-64
2023/02/03 10:33:59;;;;;;;16.33;10.23;;;;;;;11.09;68.84;101037.72;5044831;28;20045;-64
2023/02/03 10:36:40;;;;;;;14.05;10.23;;;;;;;11.07;69.20;101042.78;5043411;28;20052;-64
2023/02/03 10:39:20;;;;;;;11.30;10.07;;;;;;;11.06;69.68;101044.72;5040363;28;20048;-65
2023/02/03 10:41:48;;;;;;;13.93;10.30;;;;;;;11.07;69.92;101048.34;5047895;28;20064;-64
2023/02/03 10:44:21;;;;;;;11.93;9.50;;;;;;;11.04;69.67;101046.97;5042881;28;20064;-64
2023/02/03 10:46:51;;;;;;;13.07;9.75;;;;;;;11.12;70.12;101042.69;5046345;28;20068;-64
2023/02/03 10:49:23;;;;;;;;;;;;;;;11.02;69.78;101045.63;5049885;28;20049;-66
2023/02/03 10:51:54;;;;;;;13.45;10.75;;;;;;;11.05;69.79;101047.81;5048269;28;19920;-66
2023/02/03 10:54:28;;;;;;;13.05;10.57;;;;;;;11.07;69.87;101043.59;5044619;28;20057;-68
2023/02/03 10:57:05;;;;;;;15.57;11.63;;;;;;;11.10;70.18;101039.38;5046793;28;20617;-66
2023/02/03 10:59:36;;;;;;;15.20;11.43;;;;;;;11.17;69.86;101029.50;5043777;28;20052;-65
2023/02/03 11:02:21;;;;;;;14.65;10.80;;;;;;;11.15;69.82;101039.31;5047874;28;20048;-65
2023/02/03 11:05:10;;;;;;;13.68;11.75;;;;;;;11.14;70.21;101007.78;5045975;28;20593;-68
2023/02/03 11:07:40;;;;;;;14.95;11.02;;;;;;;11.13;70.58;101022.88;5042324;28;20045;-65
2023/02/03 11:10:26;;;;;;;14.38;10.93;;;;;;;11.17;70.07;101023.06;5045303;28;20049;-65
2023/02/03 11:13:18;;;;;;;15.52;11.13;;;;;;;11.07;69.74;101026.88;5046505;28;20056;-65
2023/02/03 11:15:55;;;;;;;14.13;10.70;;;;;;;11.15;70.10;101036.50;5037845;28;20049;-65
2023/02/03 11:18:44;;;;;;;12.90;10.98;;;;;;;11.18;69.81;101041.47;5042465;28;20053;-65
2023/02/03 11:21:19;;;;;;;14.68;10.20;;;;;;;11.23;69.76;101038.56;5045904;28;20076;-65
2023/02/03 11:23:54;;;;;;;11.25;10.15;;;;;;;11.28;70.03;101038.50;5043183;28;20386;-65
2023/02/03 11:26:35;;;;;;;16.15;10.45;;;;;;;11.28;69.71;101035.72;5046708;28;20052;-66
2023/02/03 11:29:07;;;;;;;13.82;10.45;;;;;;;11.30;69.69;101050.19;5045223;28;20052;-62
2023/02/03 11:31:47;;;;;;;11.70;10.50;;;;;;;11.32;69.44;101047.09;5044159;28;20497;-62
2023/02/03 11:34:17;;;;;;;14.18;10.15;;;;;;;11.38;69.27;101057.84;5042634;28;20409;-66
2023/02/03 11:36:54;;;;;;;14.25;11.05;;;;;;;11.43;69.13;101058.91;5047484;28;20057;-65